createdAt,value
2023-08-07T00:00:35.281Z,512.92
2023-08-07T00:03:03.652Z,556.85
2023-08-07T00:05:31.351Z,562.72
2023-08-07T00:07:58.599Z,564.00
2023-08-07T00:10:25.690Z,573.97
2023-08-07T00:12:52.810Z,567.38
2023-08-07T00:15:20.405Z,565.72
2023-08-07T00:17:47.681Z,565.08
2023-08-07T00:20:14.927Z,572.63
2023-08-07T00:22:42.094Z,574.08
2023-08-07T00:25:18.726Z,562.35
2023-08-07T00:27:48.009Z,568.67
2023-08-07T00:30:18.145Z,573.53
2023-08-07T00:32:45.436Z,586.30
2023-08-07T00:35:14.891Z,580.65
2023-08-07T00:37:42.084Z,583.23
2023-08-07T00:40:09.629Z,569.92
2023-08-07T00:42:36.782Z,590.40
2023-08-07T00:45:04.062Z,578.63
2023-08-07T00:47:31.416Z,578.03
2023-08-07T00:49:59.976Z,583.33
2023-08-07T00:52:27.156Z,578.88
2023-08-07T00:54:54.247Z,580.95
2023-08-07T00:57:23.954Z,551.58
2023-08-07T00:59:51.211Z,571.08
2023-08-07T01:02:18.512Z,583.85
2023-08-07T01:04:46.181Z,573.10
2023-08-07T01:07:34.128Z,577.00
2023-08-07T01:10:04.615Z,576.15
2023-08-07T01:12:32.439Z,561.25
2023-08-07T01:15:19.325Z,579.70
2023-08-07T01:17:46.664Z,586.97
2023-08-07T01:20:13.837Z,585.40
2023-08-07T01:22:44.205Z,582.20
2023-08-07T01:25:13.591Z,568.33
2023-08-07T01:27:46.538Z,586.40
2023-08-07T01:30:34.761Z,567.53
2023-08-07T01:33:05.059Z,566.80
2023-08-07T01:35:35.283Z,552.05
2023-08-07T01:38:03.448Z,573.65
2023-08-07T01:40:43.918Z,570.80
2023-08-07T01:43:11.089Z,569.20
2023-08-07T01:45:38.567Z,559.53
2023-08-07T01:48:05.902Z,568.57
2023-08-07T01:50:33.067Z,558.33
2023-08-07T01:53:00.362Z,571.90
2023-08-07T01:55:30.333Z,569.75
2023-08-07T01:57:57.494Z,569.78
2023-08-07T02:00:28.040Z,579.88
2023-08-07T02:02:55.238Z,565.03
2023-08-07T02:05:22.480Z,564.95
2023-08-07T02:07:49.661Z,552.53
2023-08-07T02:10:16.938Z,557.58
2023-08-07T02:12:44.115Z,567.17
2023-08-07T02:15:11.389Z,577.05
2023-08-07T02:17:42.744Z,563.97
2023-08-07T02:20:10.289Z,570.00
2023-08-07T02:22:39.643Z,565.45
2023-08-07T02:25:07.643Z,539.72
2023-08-07T02:27:34.789Z,546.78
2023-08-07T02:30:03.896Z,565.25
2023-08-07T02:32:31.425Z,550.23
2023-08-07T02:34:58.624Z,527.05
2023-08-07T02:37:25.928Z,533.17
2023-08-07T02:39:54.594Z,548.40
2023-08-07T02:42:21.872Z,548.05
2023-08-07T02:44:49.003Z,535.30
2023-08-07T02:47:16.117Z,537.95
2023-08-07T02:49:43.286Z,536.70
2023-08-07T02:52:10.420Z,535.13
2023-08-07T02:54:40.577Z,527.40
2023-08-07T02:57:07.754Z,537.05
2023-08-07T02:59:34.931Z,533.95
2023-08-07T03:02:02.108Z,537.13
2023-08-07T03:04:29.224Z,535.22
2023-08-07T03:06:56.557Z,520.90
2023-08-07T03:09:28.949Z,539.85
2023-08-07T03:12:04.205Z,525.50
2023-08-07T03:14:32.426Z,524.30
2023-08-07T03:16:59.591Z,537.78
2023-08-07T03:19:26.751Z,533.90
2023-08-07T03:21:57.081Z,531.03
2023-08-07T03:24:24.193Z,526.63
2023-08-07T03:26:51.417Z,534.75
2023-08-07T03:29:18.655Z,545.33
2023-08-07T03:31:48.375Z,517.50
2023-08-07T03:34:15.502Z,515.20
2023-08-07T03:36:42.601Z,546.15
2023-08-07T03:39:11.439Z,533.47
2023-08-07T03:41:41.198Z,517.25
2023-08-07T03:44:08.434Z,533.90
2023-08-07T03:46:35.719Z,541.35
2023-08-07T03:49:02.898Z,563.97
2023-08-07T03:51:31.729Z,563.17
2023-08-07T03:53:58.887Z,560.03
2023-08-07T03:56:26.064Z,574.23
2023-08-07T03:58:53.295Z,577.55
2023-08-07T04:01:20.525Z,580.70
2023-08-07T04:03:50.902Z,560.60
2023-08-07T04:06:18.112Z,568.38
2023-08-07T04:08:47.150Z,578.08
2023-08-07T04:11:14.377Z,550.80
2023-08-07T04:13:41.510Z,532.03
2023-08-07T04:16:08.784Z,561.60
2023-08-07T04:18:36.080Z,555.40
2023-08-07T04:21:28.662Z,562.78
2023-08-07T04:23:55.857Z,560.90
2023-08-07T04:26:23.112Z,558.58
2023-08-07T04:28:50.334Z,565.77
2023-08-07T04:31:17.537Z,572.20
2023-08-07T04:33:47.574Z,585.97
2023-08-07T04:36:15.042Z,572.15
2023-08-07T04:38:42.197Z,577.17
2023-08-07T04:41:14.661Z,568.50
2023-08-07T04:43:43.843Z,576.83
2023-08-07T04:46:19.906Z,581.42
2023-08-07T04:48:48.170Z,583.00
2023-08-07T04:51:16.513Z,578.83
2023-08-07T04:53:43.776Z,575.13
2023-08-07T04:56:10.946Z,591.35
2023-08-07T04:58:39.176Z,595.20
2023-08-07T05:01:07.697Z,586.17
2023-08-07T05:03:35.009Z,560.80
2023-08-07T05:06:02.710Z,585.35
2023-08-07T05:08:30.313Z,596.97
2023-08-07T05:10:57.427Z,600.17
2023-08-07T05:13:24.762Z,584.70
2023-08-07T05:15:51.836Z,597.80
2023-08-07T05:18:19.961Z,586.70
2023-08-07T05:20:47.193Z,592.33
2023-08-07T05:23:14.307Z,584.83
2023-08-07T05:25:43.039Z,586.28
2023-08-07T05:28:10.137Z,595.80
2023-08-07T05:30:37.525Z,587.63
2023-08-07T05:33:04.729Z,600.00
2023-08-07T05:35:31.968Z,595.63
2023-08-07T05:37:59.259Z,604.50
2023-08-07T05:40:32.966Z,590.28
2023-08-07T05:43:00.044Z,591.60
2023-08-07T05:45:30.022Z,594.63
2023-08-07T05:47:59.778Z,577.05
2023-08-07T05:50:26.897Z,598.92
2023-08-07T05:52:54.087Z,594.03
2023-08-07T05:55:21.329Z,585.10
2023-08-07T05:57:48.475Z,589.58
2023-08-07T06:00:20.417Z,592.40
2023-08-07T06:02:56.621Z,591.00
2023-08-07T06:05:23.713Z,596.22
2023-08-07T06:07:50.881Z,589.50
2023-08-07T06:10:18.124Z,579.92
2023-08-07T06:12:45.302Z,603.00
2023-08-07T06:15:12.522Z,596.80
2023-08-07T06:17:40.455Z,593.17
2023-08-07T06:20:12.494Z,581.83
2023-08-07T06:22:42.481Z,588.55
2023-08-07T06:25:09.979Z,586.30
2023-08-07T06:27:37.079Z,590.58
2023-08-07T06:30:04.417Z,589.47
2023-08-07T06:32:36.800Z,594.63
2023-08-07T06:35:05.411Z,602.90
2023-08-07T06:37:38.399Z,571.47
2023-08-07T06:40:06.252Z,584.55
2023-08-07T06:42:33.421Z,587.38
2023-08-07T06:45:00.661Z,579.07
2023-08-07T06:47:30.146Z,584.63
2023-08-07T06:49:58.503Z,584.78
2023-08-07T06:52:25.613Z,581.80
2023-08-07T06:54:53.576Z,578.33
2023-08-07T06:57:20.689Z,572.73
2023-08-07T06:59:47.801Z,583.72
2023-08-07T07:02:15.200Z,592.40
2023-08-07T07:04:42.312Z,589.15
2023-08-07T07:07:09.475Z,593.40
2023-08-07T07:09:39.603Z,601.78
2023-08-07T07:12:06.901Z,599.22
2023-08-07T07:14:35.088Z,602.38
2023-08-07T07:17:02.281Z,601.83
2023-08-07T07:19:29.380Z,608.08
2023-08-07T07:21:56.772Z,602.10
2023-08-07T07:24:24.753Z,602.60
2023-08-07T07:26:54.647Z,611.83
2023-08-07T07:29:22.541Z,618.60
2023-08-07T07:31:49.707Z,613.38
2023-08-07T07:34:16.873Z,616.53
2023-08-07T07:36:44.050Z,616.83
2023-08-07T07:39:14.265Z,622.90
2023-08-07T07:41:41.490Z,614.55
2023-08-07T07:44:11.674Z,620.80
2023-08-07T07:46:38.829Z,601.00
2023-08-07T07:49:06.090Z,621.55
2023-08-07T07:51:33.631Z,608.67
2023-08-07T07:54:13.722Z,613.83
2023-08-07T07:56:41.976Z,608.63
2023-08-07T07:59:09.505Z,617.55
2023-08-07T08:01:37.053Z,607.95
2023-08-07T08:04:04.225Z,614.45
2023-08-07T08:06:34.623Z,609.40
2023-08-07T08:09:05.279Z,612.70
2023-08-07T08:11:32.961Z,618.78
2023-08-07T08:14:00.035Z,608.28
2023-08-07T08:16:27.165Z,612.10
2023-08-07T08:18:54.368Z,604.42
2023-08-07T08:21:21.470Z,612.17
2023-08-07T08:23:53.733Z,605.60
2023-08-07T08:26:20.933Z,611.15
2023-08-07T08:28:51.112Z,609.42
2023-08-07T08:31:25.467Z,604.70
2023-08-07T08:33:58.686Z,581.90
2023-08-07T08:36:26.428Z,581.92
2023-08-07T08:38:53.911Z,588.97
2023-08-07T08:41:24.560Z,584.83
2023-08-07T08:43:56.008Z,588.30
2023-08-07T08:46:35.401Z,607.22
2023-08-07T08:49:16.144Z,607.58
2023-08-07T08:51:46.085Z,611.83
2023-08-07T08:54:13.481Z,613.08
2023-08-07T08:56:43.891Z,604.53
2023-08-07T08:59:18.179Z,610.13
2023-08-07T09:01:45.886Z,595.00
2023-08-07T09:04:13.117Z,572.83
2023-08-07T09:06:42.638Z,602.17
2023-08-07T09:09:15.573Z,606.17
2023-08-07T09:11:44.602Z,607.92
2023-08-07T09:14:14.131Z,615.57
2023-08-07T09:16:41.941Z,609.83
2023-08-07T09:19:12.149Z,599.03
2023-08-07T09:21:39.449Z,602.83
2023-08-07T09:24:06.807Z,593.00
2023-08-07T09:26:37.548Z,584.70
2023-08-07T09:29:04.848Z,561.08
2023-08-07T09:31:32.088Z,557.22
2023-08-07T09:34:06.257Z,572.10
2023-08-07T09:36:41.846Z,564.28
2023-08-07T09:39:09.140Z,537.05
2023-08-07T09:41:45.479Z,546.42
2023-08-07T09:44:36.320Z,568.38
2023-08-07T09:47:16.610Z,602.88
2023-08-07T09:49:44.528Z,557.45
2023-08-07T09:52:27.196Z,593.75
2023-08-07T09:55:01.119Z,597.75
2023-08-07T09:57:28.370Z,594.95
2023-08-07T10:00:12.652Z,593.13
2023-08-07T10:02:46.202Z,574.43
2023-08-07T10:05:14.022Z,575.97
2023-08-07T10:07:41.796Z,594.20
2023-08-07T10:10:11.656Z,603.87
2023-08-07T10:12:40.026Z,612.42
2023-08-07T10:15:07.603Z,613.10
2023-08-07T10:17:37.953Z,605.00
2023-08-07T10:20:06.160Z,605.78
2023-08-07T10:22:34.129Z,606.00
2023-08-07T10:25:06.568Z,581.75
2023-08-07T10:27:36.187Z,620.13
2023-08-07T10:30:04.175Z,614.28
2023-08-07T10:32:32.064Z,617.17
2023-08-07T10:34:59.199Z,630.00
2023-08-07T10:37:45.950Z,635.15
2023-08-07T10:40:14.179Z,643.92
2023-08-07T10:42:53.874Z,655.42
2023-08-07T10:45:24.291Z,664.43
2023-08-07T10:48:00.539Z,672.20
2023-08-07T10:50:34.184Z,667.05
2023-08-07T10:53:04.980Z,669.05
2023-08-07T10:55:45.848Z,664.50
2023-08-07T10:58:31.153Z,669.47
2023-08-07T11:01:18.611Z,666.77
2023-08-07T11:03:45.794Z,671.30
2023-08-07T11:06:15.385Z,642.10
2023-08-07T11:08:42.524Z,650.85
2023-08-07T11:11:10.041Z,659.37
2023-08-07T11:13:39.950Z,644.70
2023-08-07T11:16:07.494Z,650.85
2023-08-07T11:18:36.737Z,646.05
2023-08-07T11:21:04.080Z,654.90
2023-08-07T11:23:31.239Z,659.97
2023-08-07T11:25:58.451Z,663.70
2023-08-07T11:28:25.846Z,666.50
2023-08-07T11:30:56.677Z,676.03
2023-08-07T11:33:25.511Z,692.78
2023-08-07T11:35:52.759Z,703.17
2023-08-07T11:38:36.180Z,710.20
2023-08-07T11:41:04.086Z,713.20
2023-08-07T11:43:34.938Z,712.42
2023-08-07T11:46:09.072Z,706.75
2023-08-07T11:48:37.708Z,705.10
2023-08-07T11:51:05.309Z,701.05
2023-08-07T11:53:36.880Z,696.42
2023-08-07T11:56:05.283Z,690.47
2023-08-07T11:58:37.484Z,684.47
2023-08-07T12:01:11.792Z,679.00
2023-08-07T12:03:40.904Z,674.53
2023-08-07T12:06:08.655Z,668.33
2023-08-07T12:08:36.868Z,667.00
2023-08-07T12:11:05.408Z,669.83
2023-08-07T12:13:33.897Z,667.13
2023-08-07T12:16:01.076Z,670.47
2023-08-07T12:18:29.090Z,671.35
2023-08-07T12:21:01.239Z,678.63
2023-08-07T12:23:28.442Z,687.22
2023-08-07T12:25:55.753Z,688.65
2023-08-07T12:28:22.896Z,696.10
2023-08-07T12:30:50.521Z,683.72
2023-08-07T12:33:17.656Z,695.55
2023-08-07T12:35:45.060Z,711.13
2023-08-07T12:38:14.967Z,722.53
2023-08-07T12:40:44.387Z,726.55
2023-08-07T12:43:14.520Z,729.88
2023-08-07T12:48:12.004Z,721.65
2023-08-07T12:50:39.445Z,714.88
2023-08-07T12:53:06.678Z,702.35
2023-08-07T12:55:33.945Z,703.87
2023-08-07T12:58:01.629Z,700.33
2023-08-07T13:00:29.376Z,687.22
2023-08-07T13:02:57.244Z,703.72
2023-08-07T13:05:25.237Z,689.28
2023-08-07T13:07:59.848Z,694.35
2023-08-07T13:10:32.950Z,697.72
2023-08-07T13:13:06.872Z,709.23
2023-08-07T13:15:34.819Z,719.87
2023-08-07T13:18:02.667Z,729.97
2023-08-07T13:20:34.486Z,740.08
2023-08-07T13:23:02.645Z,748.03
2023-08-07T13:25:29.980Z,766.17
2023-08-07T13:27:57.217Z,765.95
2023-08-07T13:30:24.313Z,762.93
2023-08-07T13:32:51.842Z,756.13
2023-08-07T13:35:21.729Z,741.42
2023-08-07T13:37:48.865Z,722.17
2023-08-07T13:40:19.590Z,703.83
2023-08-07T13:42:47.921Z,709.67
2023-08-07T13:45:15.018Z,706.47
2023-08-07T13:47:42.156Z,695.80
2023-08-07T13:50:13.810Z,715.92
2023-08-07T13:52:44.240Z,729.67
2023-08-07T13:55:11.409Z,758.35
2023-08-07T13:57:38.741Z,785.30
2023-08-07T14:00:09.437Z,781.23
2023-08-07T14:02:39.444Z,787.03
2023-08-07T14:05:10.583Z,795.63
2023-08-07T14:07:39.780Z,783.28
2023-08-07T14:10:07.229Z,784.83
2023-08-07T14:12:34.368Z,800.28
2023-08-07T14:15:01.536Z,790.53
2023-08-07T14:17:28.690Z,797.90
2023-08-07T14:19:55.876Z,802.58
2023-08-07T14:22:23.053Z,797.65
2023-08-07T14:24:50.228Z,809.20
2023-08-07T14:27:17.316Z,821.67
2023-08-07T14:29:44.480Z,819.80
2023-08-07T14:32:11.673Z,817.03
2023-08-07T14:34:38.837Z,844.05
2023-08-07T14:37:06.504Z,850.08
2023-08-07T14:39:33.656Z,851.90
2023-08-07T14:42:00.949Z,857.42
2023-08-07T14:44:30.417Z,850.58
2023-08-07T14:46:57.737Z,857.85
2023-08-07T14:49:24.863Z,852.88
2023-08-07T14:51:52.038Z,855.78
2023-08-07T14:54:22.065Z,843.42
2023-08-07T14:56:49.175Z,825.67
2023-08-07T14:59:16.371Z,804.05
2023-08-07T15:01:46.528Z,798.95
2023-08-07T15:04:15.101Z,751.93
2023-08-07T15:06:43.418Z,787.53
2023-08-07T15:09:10.811Z,808.15
2023-08-07T15:11:39.651Z,820.67
2023-08-07T15:14:08.656Z,830.30
2023-08-07T15:16:36.757Z,826.03
2023-08-07T15:19:04.532Z,798.70
2023-08-07T15:21:32.293Z,785.03
2023-08-07T15:23:59.581Z,760.75
2023-08-07T15:26:27.006Z,756.03
2023-08-07T15:28:54.131Z,752.88
2023-08-07T15:31:21.234Z,762.25
2023-08-07T15:33:50.384Z,796.90
2023-08-07T15:36:17.575Z,822.47
2023-08-07T15:38:44.708Z,851.25
2023-08-07T15:41:15.189Z,869.67
2023-08-07T15:43:42.359Z,873.60
2023-08-07T15:46:09.693Z,895.13
2023-08-07T15:48:36.991Z,898.78
2023-08-07T15:51:04.423Z,899.50
2023-08-07T15:53:31.588Z,901.67
2023-08-07T15:56:01.837Z,887.42
2023-08-07T15:58:29.207Z,882.47
2023-08-07T16:00:56.648Z,868.63
2023-08-07T16:03:24.265Z,872.65
2023-08-07T16:05:51.448Z,823.95
2023-08-07T16:08:18.733Z,814.13
2023-08-07T16:10:45.911Z,799.92
2023-08-07T16:13:14.966Z,781.92
2023-08-07T16:15:45.512Z,766.55
2023-08-07T16:18:12.833Z,760.63
2023-08-07T16:20:40.260Z,748.10
2023-08-07T16:23:08.468Z,745.63
2023-08-07T16:25:35.656Z,739.65
2023-08-07T16:28:04.661Z,738.60
2023-08-07T16:30:31.968Z,719.85
2023-08-07T16:32:59.124Z,726.60
2023-08-07T16:35:26.373Z,738.10
2023-08-07T16:40:36.254Z,735.53
2023-08-07T16:43:04.184Z,734.72
2023-08-07T16:45:31.410Z,733.87
2023-08-07T16:47:58.994Z,712.72
2023-08-07T16:50:28.158Z,710.88
2023-08-07T16:53:00.706Z,701.53
2023-08-07T16:55:30.662Z,700.75
2023-08-07T16:57:57.921Z,710.25
2023-08-07T17:00:27.653Z,725.67
2023-08-07T17:02:57.820Z,712.72
2023-08-07T17:05:25.935Z,730.15
2023-08-07T17:07:53.187Z,765.00
2023-08-07T17:10:20.352Z,777.23
2023-08-07T17:12:50.734Z,776.85
2023-08-07T17:15:18.018Z,725.55
2023-08-07T17:17:45.309Z,728.78
2023-08-07T17:20:13.130Z,713.53
2023-08-07T17:22:40.505Z,710.03
2023-08-07T17:25:07.830Z,709.25
2023-08-07T17:27:34.933Z,710.70
2023-08-07T17:30:02.038Z,701.05
2023-08-07T17:32:29.206Z,713.90
2023-08-07T17:34:58.448Z,722.28
2023-08-07T17:37:25.709Z,707.10
2023-08-07T17:39:55.709Z,716.60
2023-08-07T17:42:22.837Z,714.40
2023-08-07T17:44:51.580Z,708.85
2023-08-07T17:47:18.726Z,736.50
2023-08-07T17:49:53.197Z,700.50
2023-08-07T17:52:21.599Z,697.40
2023-08-07T17:54:54.834Z,698.08
2023-08-07T17:57:22.080Z,694.73
2023-08-07T17:59:50.375Z,683.47
2023-08-07T18:02:17.529Z,689.00
2023-08-07T18:04:44.775Z,694.35
2023-08-07T18:07:11.949Z,679.17
2023-08-07T18:09:39.215Z,680.35
2023-08-07T18:12:06.495Z,439.38
2023-08-07T18:14:34.409Z,679.22
2023-08-07T18:17:01.940Z,666.17
2023-08-07T18:19:29.457Z,685.45
2023-08-07T18:21:56.631Z,676.58
2023-08-07T18:24:26.694Z,671.42
2023-08-07T18:26:56.660Z,668.42
2023-08-07T18:29:24.371Z,670.42
2023-08-07T18:31:51.804Z,664.58
2023-08-07T18:34:19.040Z,665.83
2023-08-07T18:36:47.560Z,662.63
2023-08-07T18:39:17.172Z,655.03
2023-08-07T18:41:47.519Z,652.03
2023-08-07T18:44:14.775Z,650.00
2023-08-07T18:46:42.908Z,644.30
2023-08-07T18:49:10.332Z,640.72
2023-08-07T18:51:39.629Z,639.08
2023-08-07T18:54:07.076Z,636.03
2023-08-07T18:56:34.281Z,633.33
2023-08-07T18:59:04.770Z,632.58
2023-08-07T19:01:32.526Z,631.20
2023-08-07T19:03:59.788Z,630.00
2023-08-07T19:06:27.457Z,624.65
2023-08-07T19:08:54.645Z,625.30
2023-08-07T19:11:28.281Z,629.47
2023-08-07T19:13:58.138Z,623.92
2023-08-07T19:16:25.412Z,614.92
2023-08-07T19:18:55.143Z,612.47
2023-08-07T19:21:22.251Z,616.97
2023-08-07T19:23:52.354Z,613.08
2023-08-07T19:26:25.289Z,619.27
2023-08-07T19:28:53.988Z,621.15
2023-08-07T19:31:21.205Z,613.33
2023-08-07T19:33:48.461Z,615.63
2023-08-07T19:36:15.778Z,616.05
2023-08-07T19:38:42.963Z,619.03
2023-08-07T19:41:11.693Z,614.97
2023-08-07T19:43:38.822Z,607.85
2023-08-07T19:46:08.837Z,601.93
2023-08-07T19:48:38.230Z,594.33
2023-08-07T19:51:06.900Z,611.80
2023-08-07T19:53:34.033Z,610.83
2023-08-07T19:56:01.930Z,614.87
2023-08-07T19:58:29.131Z,615.70
2023-08-07T20:00:56.265Z,602.05
2023-08-07T20:03:23.502Z,617.03
2023-08-07T20:05:54.330Z,599.90
2023-08-07T20:08:21.434Z,595.75
2023-08-07T20:10:48.600Z,603.47
2023-08-07T20:13:16.108Z,598.97
2023-08-07T20:15:43.681Z,611.88
2023-08-07T20:18:10.897Z,606.63
2023-08-07T20:20:38.317Z,600.80
2023-08-07T20:23:05.568Z,590.20
2023-08-07T20:25:32.794Z,596.72
2023-08-07T20:27:59.908Z,591.17
2023-08-07T20:30:27.111Z,583.67
2023-08-07T20:32:54.440Z,579.60
2023-08-07T20:35:24.451Z,588.22
2023-08-07T20:37:52.635Z,592.90
2023-08-07T20:40:19.700Z,580.55
2023-08-07T20:42:46.944Z,531.38
2023-08-07T20:45:14.066Z,533.42
2023-08-07T20:47:41.276Z,538.28
2023-08-07T20:50:11.558Z,532.20
2023-08-07T20:52:38.704Z,528.10
2023-08-07T20:55:08.891Z,536.45
2023-08-07T20:57:36.219Z,532.67
2023-08-07T21:00:07.181Z,519.00
2023-08-07T21:02:34.436Z,573.13
2023-08-07T21:05:04.638Z,536.20
2023-08-07T21:07:34.562Z,536.03
2023-08-07T21:10:08.663Z,511.77
2023-08-07T21:12:36.443Z,558.85
2023-08-07T21:15:05.317Z,535.63
2023-08-07T21:17:32.742Z,537.65
2023-08-07T21:19:59.902Z,534.33
2023-08-07T21:22:27.098Z,518.20
2023-08-07T21:24:57.043Z,525.30
2023-08-07T21:27:26.944Z,533.33
2023-08-07T21:29:54.125Z,522.50
2023-08-07T21:32:21.225Z,529.63
2023-08-07T21:34:48.381Z,520.08
2023-08-07T21:37:18.089Z,526.22
2023-08-07T21:39:45.177Z,569.27
2023-08-07T21:42:12.355Z,581.97
2023-08-07T21:44:40.584Z,591.65
2023-08-07T21:47:08.180Z,604.95
2023-08-07T21:49:35.372Z,593.80
2023-08-07T21:52:02.987Z,619.60
2023-08-07T21:54:30.086Z,585.83
2023-08-07T21:56:57.213Z,561.37
2023-08-07T21:59:24.292Z,589.00
2023-08-07T22:01:54.106Z,556.75
2023-08-07T22:04:21.232Z,562.30
2023-08-07T22:06:48.378Z,551.10
2023-08-07T22:09:15.534Z,544.35
2023-08-07T22:11:42.628Z,540.55
2023-08-07T22:14:09.807Z,599.13
2023-08-07T22:16:39.996Z,518.97
2023-08-07T22:19:10.257Z,555.93
2023-08-07T22:21:41.006Z,562.17
2023-08-07T22:24:08.175Z,569.88
2023-08-07T22:26:35.322Z,609.40
2023-08-07T22:29:04.664Z,547.47
2023-08-07T22:31:31.826Z,529.67
2023-08-07T22:33:59.088Z,531.03
2023-08-07T22:36:26.278Z,511.27
2023-08-07T22:38:59.490Z,535.97
2023-08-07T22:41:26.733Z,479.80
2023-08-07T22:43:53.930Z,565.05
2023-08-07T22:46:21.118Z,514.85
2023-08-07T22:48:51.385Z,519.13
2023-08-07T22:51:18.503Z,505.13
2023-08-07T22:53:45.628Z,534.10
2023-08-07T22:56:12.766Z,519.77
2023-08-07T22:58:39.875Z,486.23
2023-08-07T23:01:07.204Z,488.63
2023-08-07T23:03:34.718Z,485.75
2023-08-07T23:06:01.910Z,504.92
2023-08-07T23:08:29.053Z,527.67
2023-08-07T23:11:06.485Z,562.92
2023-08-07T23:13:33.813Z,299.08
2023-08-07T23:16:00.983Z,307.02
2023-08-07T23:18:30.400Z,379.60
2023-08-07T23:20:57.524Z,562.30
2023-08-07T23:23:24.747Z,543.47
2023-08-07T23:25:51.948Z,569.67
2023-08-07T23:28:19.156Z,558.33
2023-08-07T23:30:46.500Z,514.95
2023-08-07T23:33:13.704Z,490.10
2023-08-07T23:35:40.826Z,490.25
2023-08-07T23:38:08.126Z,490.75
2023-08-07T23:40:38.572Z,490.20
2023-08-07T23:43:06.654Z,480.45
2023-08-07T23:45:33.822Z,502.30
2023-08-07T23:48:01.080Z,507.85
2023-08-07T23:50:28.429Z,518.83
2023-08-07T23:52:55.551Z,531.50
2023-08-07T23:55:22.706Z,499.40
2023-08-07T23:57:49.907Z,498.85
